Main page
METAR-TAF:

METAR-TAF

Airports :

Colonel Carlos Concha Torres Airport

Esmeraldas, Ecuador

latitude: 00-58-43N, longitude: 079-37-36W, elevation: 10 m

Current weather observation

The report was made 8 hours and 15 minutes ago, at 23:00 UTC
Wind 5 kt from the West, varying between Southwest and Northwest
Temperature 29°C
Humidity 70%
Pressure 1008 hPa
Visibility: 4000 m
Few clouds at a height of 2600 ft
Broken clouds at a height of 10000 ft

METAR: SETN 022300Z 27005KT 230V320 9999 4000S FEW026 BKN100 29/23 Q1008 A2978

Time: 02:15 (07:15 UTC)


TAF: missing

Weather observations and forecasts of more than 4000 airports (METAR and TAF reports).

The available stations are represented by yellow and red dots on the map.

Hover mouse over dot to see the name of the station.

Then click to see weather observations and forecasts.

To change the map : click on the green buttons with a black cross to zoom in, on the green button with a dash to zoom out, or on the green arrows for adjacent maps.


METAR-TAF: